Time;durP1;ratioP1;P1;durP2;ratioP2;P2;SDS_P1;SDS_P2;PMS_P1;PMS_P2;Temp;Humidity;BMP_temperature;BMP_pressure;BME280_temperature;BME280_humidity;BME280_pressure;Samples;Min_cycle;Max_cycle;Signal;HPM_P1;HPM_P2
2023/07/19 00:02:10;;;;;;;5.82;2.03;;;24.10;81.40;;;;;;5088681;28;20059;-63
2023/07/19 00:04:36;;;;;;;4.25;1.55;;;23.80;81.40;;;;;;5086548;28;20408;-65
2023/07/19 00:07:02;;;;;;;3.55;1.63;;;24.00;85.00;;;;;;5073143;28;20044;-65
2023/07/19 00:09:28;;;;;;;5.10;1.98;;;24.00;81.40;;;;;;5073954;28;20485;-66
2023/07/19 00:11:54;;;;;;;5.22;1.92;;;23.90;81.40;;;;;;5083777;28;20125;-64
2023/07/19 00:14:19;;;;;;;2.67;1.40;;;23.90;84.70;;;;;;5094290;28;20040;-65
2023/07/19 00:16:46;;;;;;;3.47;1.70;;;24.10;85.10;;;;;;5096733;28;20036;-64
2023/07/19 00:19:11;;;;;;;4.43;1.77;;;23.80;84.20;;;;;;5090561;28;20539;-65
2023/07/19 00:21:37;;;;;;;6.00;1.92;;;23.80;81.50;;;;;;5084468;28;20052;-65
2023/07/19 00:24:03;;;;;;;3.67;2.00;;;24.00;84.20;;;;;;5096342;28;20048;-65
2023/07/19 00:26:28;;;;;;;4.97;1.92;;;24.00;84.50;;;;;;5096532;28;20035;-64
2023/07/19 00:28:54;;;;;;;5.28;1.98;;;24.00;84.10;;;;;;5094551;28;20036;-63
2023/07/19 00:31:20;;;;;;;2.90;1.70;;;23.80;83.90;;;;;;5093658;28;20048;-69
2023/07/19 00:33:46;;;;;;;3.60;1.63;;;23.90;84.70;;;;;;5095321;28;20044;-64
2023/07/19 00:36:12;;;;;;;3.05;1.70;;;23.90;85.10;;;;;;5077690;28;20100;-64
2023/07/19 00:38:38;;;;;;;3.75;1.63;;;23.80;81.60;;;;;;5077307;28;20048;-66
2023/07/19 00:41:03;;;;;;;4.18;1.85;;;23.70;84.00;;;;;;5093872;28;20040;-65
2023/07/19 00:43:29;;;;;;;4.57;2.00;;;24.00;84.20;;;;;;5091770;28;20082;-63
2023/07/19 00:45:55;;;;;;;3.05;1.60;;;23.80;81.50;;;;;;5078443;28;20406;-70
2023/07/19 00:48:21;;;;;;;3.88;1.98;;;23.60;81.50;;;;;;5059381;28;20040;-64
2023/07/19 00:50:50;;;;;;;3.80;1.70;;;23.90;81.60;;;;;;5094849;28;20051;-64
2023/07/19 00:53:17;;;;;;;4.75;1.88;;;23.80;81.90;;;;;;5082984;28;20067;-64
2023/07/19 00:55:43;;;;;;;2.60;1.40;;;23.90;84.20;;;;;;5075280;28;20405;-64
2023/07/19 00:58:09;;;;;;;4.38;1.77;;;23.70;84.10;;;;;;5057395;28;20448;-64
2023/07/19 01:00:35;;;;;;;3.28;1.60;;;24.00;81.80;;;;;;5087932;28;20108;-65
2023/07/19 01:03:01;;;;;;;4.95;1.70;;;23.60;81.50;;;;;;5094345;28;20047;-69
2023/07/19 01:05:27;;;;;;;3.17;1.73;;;23.70;81.70;;;;;;5094146;28;20112;-65
2023/07/19 01:07:53;;;;;;;3.42;1.75;;;23.60;81.50;;;;;;5092786;28;20169;-71
2023/07/19 01:10:19;;;;;;;3.00;1.70;;;23.80;81.60;;;;;;5076512;28;20123;-69
2023/07/19 01:12:44;;;;;;;3.58;1.73;;;23.70;84.00;;;;;;5077230;28;20044;-70
2023/07/19 01:15:10;;;;;;;3.58;1.67;;;23.70;81.50;;;;;;5083958;28;20112;-65
2023/07/19 01:17:37;;;;;;;3.88;1.85;;;23.90;84.20;;;;;;5040929;28;20048;-64
2023/07/19 01:20:06;;;;;;;2.03;1.40;;;23.80;84.90;;;;;;5085522;28;20448;-64
2023/07/19 01:22:36;;;;;;;2.92;1.50;;;24.00;81.70;;;;;;5094094;28;20505;-63
2023/07/19 01:25:02;;;;;;;3.22;1.30;;;23.80;81.40;;;;;;5093978;28;20063;-65
2023/07/19 01:27:28;;;;;;;3.58;1.67;;;23.90;81.90;;;;;;5075005;28;20090;-63
2023/07/19 01:29:54;;;;;;;2.95;1.65;;;24.00;81.90;;;;;;5090627;28;20036;-64
2023/07/19 01:32:19;;;;;;;2.80;1.60;;;23.90;81.80;;;;;;5082970;28;20470;-69
2023/07/19 01:34:45;;;;;;;3.05;1.58;;;23.80;84.30;;;;;;5085149;28;20054;-69
2023/07/19 01:37:11;;;;;;;3.10;1.50;;;23.80;81.90;;;;;;5094630;28;20093;-65
2023/07/19 01:39:37;;;;;;;2.20;1.45;;;23.80;84.60;;;;;;5092670;28;20186;-65
2023/07/19 01:42:03;;;;;;;3.05;1.52;;;23.80;85.10;;;;;;5094779;28;20079;-64
2023/07/19 01:44:28;;;;;;;3.22;1.80;;;23.80;81.70;;;;;;5078277;28;20108;-64
2023/07/19 01:46:54;;;;;;;2.78;1.55;;;23.90;85.50;;;;;;5078295;28;20036;-64
2023/07/19 01:49:20;;;;;;;3.38;1.70;;;23.80;81.80;;;;;;5093987;28;20044;-64
2023/07/19 01:51:46;;;;;;;3.38;1.58;;;23.80;81.90;;;;;;5092657;28;20161;-64
2023/07/19 01:54:12;;;;;;;4.07;1.70;;;23.90;81.60;;;;;;5071929;28;20060;-64
2023/07/19 01:56:38;;;;;;;4.05;1.90;;;23.90;81.90;;;;;;5073807;28;20084;-64
2023/07/19 01:59:03;;;;;;;3.58;1.90;;;23.80;81.80;;;;;;5074211;28;20044;-64
2023/07/19 02:01:29;;;;;;;4.07;1.85;;;23.60;85.10;;;;;;5088232;28;20051;-72
2023/07/19 02:03:55;;;;;;;3.15;1.80;;;23.70;81.70;;;;;;5079065;28;20044;-69
2023/07/19 02:06:21;;;;;;;3.38;1.80;;;23.90;85.20;;;;;;5091003;28;20126;-69
2023/07/19 02:08:47;;;;;;;4.07;1.90;;;23.80;81.90;;;;;;5092319;28;20417;-68
2023/07/19 02:11:13;;;;;;;4.00;1.75;;;23.70;81.80;;;;;;5092648;28;20124;-69
2023/07/19 02:13:39;;;;;;;3.80;1.92;;;23.70;84.60;;;;;;5093114;28;20071;-63
2023/07/19 02:16:05;;;;;;;6.60;2.00;;;23.60;81.70;;;;;;5084625;28;20486;-62
2023/07/19 02:18:31;;;;;;;3.63;1.70;;;23.80;81.70;;;;;;5073944;28;20032;-63
2023/07/19 02:20:57;;;;;;;3.25;1.77;;;23.70;84.90;;;;;;5074044;28;20052;-65
2023/07/19 02:23:23;;;;;;;3.50;1.85;;;24.00;81.70;;;;;;5075389;28;20051;-64
2023/07/19 02:25:50;;;;;;;3.72;1.75;;;23.80;82.10;;;;;;5074563;28;20096;-64
2023/07/19 02:28:16;;;;;;;3.38;1.80;;;23.70;81.90;;;;;;5092191;28;20047;-69
2023/07/19 02:30:43;;;;;;;3.30;1.70;;;23.70;84.40;;;;;;5090757;28;20097;-71
2023/07/19 02:33:13;;;;;;;4.13;1.80;;;23.80;85.30;;;;;;5082804;28;20067;-71
2023/07/19 02:35:39;;;;;;;4.07;1.90;;;24.00;82.50;;;;;;5083860;28;20058;-71
2023/07/19 02:38:05;;;;;;;4.85;1.70;;;23.70;81.90;;;;;;5093127;28;20035;-60
2023/07/19 02:40:31;;;;;;;4.15;1.90;;;23.90;81.80;;;;;;5093403;28;20477;-64
2023/07/19 02:42:57;;;;;;;2.92;1.67;;;23.80;84.90;;;;;;5090727;28;20047;-64
2023/07/19 02:45:24;;;;;;;3.67;1.80;;;23.90;82.00;;;;;;5084103;28;20041;-63
2023/07/19 02:47:51;;;;;;;3.60;1.83;;;23.80;84.70;;;;;;5061165;28;20119;-65
2023/07/19 02:50:22;;;;;;;4.22;2.00;;;23.90;81.90;;;;;;5091890;28;20043;-63
2023/07/19 02:52:51;;;;;;;3.95;2.13;;;23.60;80.90;;;;;;5053828;28;20163;-64
2023/07/19 02:55:17;;;;;;;5.15;2.00;;;23.60;84.60;;;;;;5062467;28;20128;-63
2023/07/19 02:57:43;;;;;;;3.95;1.73;;;24.00;85.80;;;;;;5056437;28;20048;-62
2023/07/19 03:00:10;;;;;;;4.20;2.00;;;23.80;85.50;;;;;;5072973;28;20040;-64
2023/07/19 03:02:36;;;;;;;2.72;1.50;;;23.70;81.60;;;;;;5070431;28;20044;-62
2023/07/19 03:05:03;;;;;;;4.30;1.55;;;23.70;82.10;;;;;;5072606;28;20048;-63
2023/07/19 03:07:30;;;;;;;5.25;2.15;;;23.70;82.10;;;;;;5069431;28;20048;-64
2023/07/19 03:09:56;;;;;;;3.78;1.92;;;23.90;82.50;;;;;;5060828;28;20040;-63
2023/07/19 03:12:21;;;;;;;3.92;2.17;;;23.90;84.70;;;;;;5071801;28;20106;-65
2023/07/19 03:14:47;;;;;;;3.53;1.80;;;23.80;85.10;;;;;;5072012;28;20111;-63
2023/07/19 03:17:13;;;;;;;3.88;1.60;;;23.80;82.10;;;;;;5071133;28;20072;-65
2023/07/19 03:19:39;;;;;;;3.80;1.85;;;23.60;85.50;;;;;;5073045;28;20115;-62
2023/07/19 03:22:05;;;;;;;4.20;1.92;;;23.90;81.80;;;;;;5067146;28;20045;-63
2023/07/19 03:24:31;;;;;;;2.78;1.45;;;24.00;82.30;;;;;;5065018;28;20045;-65
2023/07/19 03:26:57;;;;;;;5.30;1.88;;;23.90;82.40;;;;;;5053833;28;20033;-64
2023/07/19 03:29:23;;;;;;;3.03;1.67;;;23.60;84.60;;;;;;5052336;28;20080;-64
2023/07/19 03:31:49;;;;;;;4.30;1.85;;;23.70;84.70;;;;;;5052513;28;20079;-64
2023/07/19 03:34:15;;;;;;;5.55;2.30;;;23.80;84.80;;;;;;5070272;28;20074;-66
2023/07/19 03:36:41;;;;;;;3.30;1.75;;;23.90;81.70;;;;;;5086360;28;20124;-63
2023/07/19 03:39:07;;;;;;;4.75;2.10;;;23.80;82.10;;;;;;5072660;28;20076;-69
2023/07/19 03:41:33;;;;;;;4.45;2.03;;;23.50;82.20;;;;;;5057151;28;20047;-64
2023/07/19 03:43:58;;;;;;;4.35;1.80;;;23.60;82.20;;;;;;5069552;28;20074;-64
2023/07/19 03:46:24;;;;;;;4.00;2.13;;;23.90;85.60;;;;;;5072353;28;20051;-65
2023/07/19 03:48:50;;;;;;;3.55;2.00;;;23.70;85.50;;;;;;5073513;28;20048;-64
2023/07/19 03:51:16;;;;;;;3.88;2.15;;;23.60;82.10;;;;;;5092265;28;20067;-64
2023/07/19 03:53:42;;;;;;;4.70;2.10;;;23.60;85.50;;;;;;5091831;28;20052;-61
2023/07/19 03:56:08;;;;;;;4.65;2.30;;;23.50;84.70;;;;;;5075914;28;20044;-62
2023/07/19 03:58:35;;;;;;;4.88;2.20;;;23.70;84.90;;;;;;5092094;28;20498;-61
2023/07/19 04:01:03;;;;;;;5.63;2.35;;;23.80;82.80;;;;;;5096810;28;20040;-62
2023/07/19 04:03:29;;;;;;;5.82;2.20;;;23.70;82.30;;;;;;5095448;28;20133;-62
2023/07/19 04:05:57;;;;;;;4.45;2.05;;;23.80;85.30;;;;;;5096350;28;20040;-64
2023/07/19 04:08:23;;;;;;;5.40;2.20;;;23.50;82.30;;;;;;5091682;28;20121;-62
2023/07/19 04:10:48;;;;;;;4.82;2.20;;;23.60;84.80;;;;;;5075726;28;20052;-64
2023/07/19 04:13:18;;;;;;;4.10;1.92;;;23.50;84.90;;;;;;5094117;28;20828;-68
2023/07/19 04:15:45;;;;;;;3.90;2.00;;;23.60;84.90;;;;;;5090239;28;20048;-65
2023/07/19 04:18:11;;;;;;;5.45;2.30;;;23.70;82.40;;;;;;5075487;28;20514;-61
2023/07/19 04:20:37;;;;;;;5.68;2.30;;;23.70;82.10;;;;;;5042054;28;20048;-61
2023/07/19 04:23:03;;;;;;;3.15;1.85;;;23.90;82.50;;;;;;5075845;28;20048;-62
2023/07/19 04:25:30;;;;;;;3.10;1.77;;;23.50;82.30;;;;;;5086669;28;20040;-69
2023/07/19 04:27:56;;;;;;;3.75;1.88;;;23.70;85.60;;;;;;5087559;28;20127;-62
2023/07/19 04:30:22;;;;;;;5.47;2.38;;;23.40;81.70;;;;;;5077581;28;20135;-63
2023/07/19 04:32:56;;;;;;;3.50;1.88;;;23.90;82.50;;;;;;5093222;28;20122;-62
2023/07/19 04:35:32;;;;;;;3.40;1.80;;;23.70;85.10;;;;;;5092074;28;20046;-63
2023/07/19 04:37:57;;;;;;;;;;;23.80;82.60;;;;;;5096643;28;20105;-62
2023/07/19 04:40:24;;;;;;;3.42;1.88;;;23.70;84.80;;;;;;5096204;28;19924;-61
2023/07/19 04:42:50;;;;;;;5.40;1.80;;;23.50;82.30;;;;;;5095809;28;20048;-72
2023/07/19 04:45:17;;;;;;;4.00;1.95;;;23.80;85.60;;;;;;5094305;28;20496;-70
2023/07/19 04:47:43;;;;;;;4.05;2.10;;;23.80;85.10;;;;;;5079594;28;20044;-62
2023/07/19 04:50:09;;;;;;;3.42;1.85;;;23.60;85.40;;;;;;5092904;28;20552;-62
2023/07/19 04:52:38;;;;;;;4.60;2.13;;;23.40;81.90;;;;;;5095362;28;20062;-61
2023/07/19 04:55:06;;;;;;;4.43;2.00;;;23.60;81.60;;;;;;5094068;28;20044;-61
2023/07/19 04:57:32;;;;;;;5.22;2.05;;;23.60;84.80;;;;;;5091430;28;20047;-61
2023/07/19 04:59:58;;;;;;;3.58;2.15;;;23.60;82.30;;;;;;5076934;28;20044;-61
2023/07/19 05:02:24;;;;;;;6.10;2.00;;;23.80;81.90;;;;;;5085826;28;20060;-61
2023/07/19 05:04:50;;;;;;;3.53;1.90;;;23.80;82.30;;;;;;5085963;28;20551;-62
2023/07/19 05:07:16;;;;;;;4.10;1.85;;;23.70;85.30;;;;;;5075918;28;20501;-71
2023/07/19 05:09:42;;;;;;;3.42;1.55;;;23.80;85.30;;;;;;5074702;28;20119;-69
2023/07/19 05:12:09;;;;;;;3.28;1.60;;;23.90;82.30;;;;;;5056702;28;20044;-67
2023/07/19 05:14:35;;;;;;;4.40;1.90;;;23.80;85.60;;;;;;5077692;28;20028;-71
2023/07/19 05:17:01;;;;;;;4.32;1.85;;;23.80;82.10;;;;;;5091706;28;20044;-69
2023/07/19 05:19:27;;;;;;;3.80;2.03;;;24.00;82.30;;;;;;5095016;28;20382;-71
2023/07/19 05:21:52;;;;;;;3.30;1.80;;;23.90;81.90;;;;;;5093954;28;20073;-69
2023/07/19 05:24:19;;;;;;;3.15;1.60;;;23.80;85.20;;;;;;5085119;28;20098;-65
2023/07/19 05:26:46;;;;;;;3.25;1.88;;;23.80;85.20;;;;;;5092827;28;20433;-71
2023/07/19 05:29:12;;;;;;;3.30;1.73;;;24.10;84.50;;;;;;5091613;28;20505;-67
2023/07/19 05:31:37;;;;;;;5.38;1.92;;;24.00;84.50;;;;;;5084073;28;20045;-61
2023/07/19 05:34:04;;;;;;;4.28;1.85;;;23.80;84.30;;;;;;5074261;28;20538;-64
2023/07/19 05:36:30;;;;;;;3.80;1.70;;;24.00;81.60;;;;;;5078768;28;20037;-63
2023/07/19 05:38:57;;;;;;;3.50;1.83;;;24.00;81.40;;;;;;5085773;28;20040;-63
2023/07/19 05:41:23;;;;;;;4.18;2.05;;;23.80;81.40;;;;;;5076085;28;20432;-64
2023/07/19 05:43:49;;;;;;;2.63;1.75;;;23.90;84.30;;;;;;5094173;28;20052;-62
2023/07/19 05:46:15;;;;;;;3.83;2.05;;;24.10;85.10;;;;;;5093108;28;20052;-61
2023/07/19 05:48:41;;;;;;;4.53;2.05;;;23.90;84.50;;;;;;5091061;28;20048;-65
2023/07/19 05:51:07;;;;;;;3.88;2.00;;;23.80;84.40;;;;;;5088707;28;20478;-70
2023/07/19 05:53:33;;;;;;;5.05;2.20;;;23.80;84.70;;;;;;5092136;28;20091;-66
2023/07/19 05:55:59;;;;;;;3.08;1.85;;;23.90;84.40;;;;;;5075441;28;20052;-70
2023/07/19 05:58:27;;;;;;;5.07;2.13;;;24.00;81.70;;;;;;5083049;28;20047;-61
2023/07/19 06:00:52;;;;;;;4.00;2.15;;;24.20;82.00;;;;;;5086118;28;20044;-63
2023/07/19 06:03:18;;;;;;;5.60;1.95;;;23.80;81.90;;;;;;5093324;28;20482;-62
2023/07/19 06:05:44;;;;;;;4.70;2.22;;;24.00;82.10;;;;;;5093144;28;20508;-64
2023/07/19 06:08:11;;;;;;;4.13;1.83;;;24.10;82.00;;;;;;5094275;28;20044;-61
2023/07/19 06:10:37;;;;;;;4.40;2.17;;;24.00;82.10;;;;;;5092791;28;20048;-63
2023/07/19 06:13:06;;;;;;;3.78;1.70;;;24.10;82.20;;;;;;5086057;28;20048;-70
2023/07/19 06:15:32;;;;;;;4.38;2.08;;;23.90;81.00;;;;;;5084669;28;20055;-63
2023/07/19 06:17:58;;;;;;;5.28;2.25;;;23.80;81.90;;;;;;5093576;28;20040;-62
2023/07/19 06:20:25;;;;;;;4.10;1.92;;;24.00;82.30;;;;;;5092168;28;20127;-64
2023/07/19 06:22:51;;;;;;;4.85;2.28;;;21.60;79.80;;;;;;5077379;28;20509;-63
2023/07/19 06:25:17;;;;;;;5.40;1.90;;;23.90;81.90;;;;;;5092819;28;20052;-61
2023/07/19 06:27:43;;;;;;;4.00;2.10;;;23.90;81.80;;;;;;5091781;28;20048;-61
2023/07/19 06:30:10;;;;;;;4.18;1.80;;;23.90;82.00;;;;;;5093305;28;20122;-63
2023/07/19 06:32:38;;;;;;;3.63;1.98;;;23.80;81.60;;;;;;5086353;28;20040;-64
2023/07/19 06:35:05;;;;;;;3.95;2.00;;;23.90;82.10;;;;;;5077917;28;20449;-61
2023/07/19 06:37:34;;;;;;;4.25;1.98;;;23.90;84.40;;;;;;5073073;28;20489;-62
2023/07/19 06:40:02;;;;;;;4.05;2.20;;;24.00;84.70;;;;;;5086509;28;20162;-65
2023/07/19 06:42:28;;;;;;;4.53;2.28;;;24.00;82.00;;;;;;5090000;28;20051;-61
2023/07/19 06:44:56;;;;;;;4.13;2.20;;;23.90;81.90;;;;;;5073179;28;20051;-62
2023/07/19 06:47:22;;;;;;;6.03;2.67;;;23.90;84.50;;;;;;5087364;28;20052;-64
2023/07/19 06:49:48;;;;;;;5.22;2.75;;;23.90;81.80;;;;;;5082147;28;20543;-63
2023/07/19 06:52:14;;;;;;;5.38;2.72;;;24.10;81.90;;;;;;5086177;28;20419;-61
2023/07/19 06:54:40;;;;;;;4.80;2.70;;;24.10;82.00;;;;;;5092125;28;20090;-63
2023/07/19 06:57:06;;;;;;;5.95;2.92;;;23.90;82.00;;;;;;5092874;28;20485;-61
2023/07/19 06:59:32;;;;;;;8.32;3.30;;;24.20;82.00;;;;;;5091625;28;20044;-63
2023/07/19 07:01:59;;;;;;;5.65;2.97;;;24.10;82.00;;;;;;5085301;28;20075;-64
2023/07/19 07:04:24;;;;;;;8.00;3.17;;;24.10;82.20;;;;;;5092899;28;20044;-61
2023/07/19 07:06:53;;;;;;;9.02;3.25;;;23.90;81.90;;;;;;5078402;28;20048;-62
2023/07/19 07:09:19;;;;;;;7.85;3.72;;;23.90;84.70;;;;;;5081584;28;20075;-70
2023/07/19 07:11:45;;;;;;;8.88;3.33;;;23.90;82.10;;;;;;5086476;28;20134;-63
2023/07/19 07:14:13;;;;;;;7.88;3.30;;;24.20;82.20;;;;;;5089986;28;20044;-61
2023/07/19 07:16:41;;;;;;;8.23;3.10;;;23.80;81.60;;;;;;5092782;28;20048;-62
2023/07/19 07:19:07;;;;;;;6.75;3.40;;;24.20;82.20;;;;;;5091385;28;20048;-63
2023/07/19 07:21:35;;;;;;;8.45;2.90;;;24.00;85.60;;;;;;5073842;28;20036;-64
2023/07/19 07:24:04;;;;;;;9.15;3.28;;;24.10;81.20;;;;;;5086662;28;20043;-61
2023/07/19 07:26:30;;;;;;;7.93;3.00;;;24.00;81.90;;;;;;5092171;28;20047;-61
2023/07/19 07:28:57;;;;;;;7.90;2.90;;;24.10;82.30;;;;;;5092577;28;20052;-63
2023/07/19 07:31:29;;;;;;;6.93;3.03;;;24.10;82.30;;;;;;5073781;28;20041;-63
2023/07/19 07:33:56;;;;;;;9.18;3.10;;;24.10;83.00;;;;;;5072058;28;20048;-66
2023/07/19 07:36:24;;;;;;;7.53;3.20;;;24.00;82.10;;;;;;5091316;28;20497;-64
2023/07/19 07:38:51;;;;;;;10.50;3.40;;;24.20;81.40;;;;;;5092780;28;20075;-62
2023/07/19 07:41:19;;;;;;;8.85;3.45;;;24.10;82.10;;;;;;5065383;28;20037;-61
2023/07/19 07:43:48;;;;;;;9.43;3.40;;;24.20;81.70;;;;;;5063779;28;20075;-63
2023/07/19 07:46:15;;;;;;;5.65;2.85;;;24.40;85.70;;;;;;5090904;28;20044;-61
2023/07/19 07:48:42;;;;;;;8.25;3.25;;;24.00;81.50;;;;;;5092316;28;20055;-62
2023/07/19 07:51:09;;;;;;;10.95;3.83;;;24.20;81.80;;;;;;5084030;28;20413;-64
2023/07/19 07:53:36;;;;;;;7.22;2.95;;;24.30;81.00;;;;;;5087101;28;20049;-64
2023/07/19 07:56:05;;;;;;;10.25;3.20;;;24.30;81.90;;;;;;5069976;28;20468;-63
2023/07/19 07:58:31;;;;;;;7.78;3.05;;;24.00;81.50;;;;;;5071731;28;20102;-60
2023/07/19 08:00:58;;;;;;;7.15;3.10;;;24.10;81.80;;;;;;5071971;28;20044;-63
2023/07/19 08:03:25;;;;;;;5.88;2.88;;;24.00;85.00;;;;;;5070292;28;20113;-62
2023/07/19 08:05:51;;;;;;;5.50;3.22;;;24.30;81.70;;;;;;5086386;28;20044;-65
2023/07/19 08:08:25;;;;;;;7.28;2.65;;;24.40;84.70;;;;;;5086790;28;20040;-64
2023/07/19 08:10:52;;;;;;;6.97;2.90;;;24.20;80.60;;;;;;5070263;28;20041;-63
2023/07/19 08:13:18;;;;;;;6.35;2.60;;;24.50;84.20;;;;;;5052424;28;20084;-62
2023/07/19 08:15:48;;;;;;;6.30;2.78;;;24.30;84.80;;;;;;5052332;28;20139;-63
2023/07/19 08:18:16;;;;;;;8.07;3.20;;;24.40;80.40;;;;;;5071518;28;20097;-64
2023/07/19 08:20:43;;;;;;;7.15;3.22;;;24.80;84.00;;;;;;5071843;28;20037;-62
2023/07/19 08:23:09;;;;;;;7.32;2.50;;;24.60;81.20;;;;;;5070077;28;20049;-62
2023/07/19 08:25:35;;;;;;;6.78;2.80;;;24.60;83.70;;;;;;5067873;28;20398;-61
2023/07/19 08:28:00;;;;;;;6.80;2.90;;;24.80;81.30;;;;;;5071145;28;20045;-61
2023/07/19 08:30:27;;;;;;;9.35;3.13;;;24.80;81.20;;;;;;5069105;28;20448;-61
2023/07/19 08:32:55;;;;;;;6.55;2.50;;;24.80;80.90;;;;;;5057711;28;20367;-64
2023/07/19 08:35:23;;;;;;;7.38;3.15;;;24.90;84.50;;;;;;5073839;28;20088;-63
2023/07/19 08:37:56;;;;;;;6.80;2.83;;;24.90;79.90;;;;;;5073344;28;20044;-63
2023/07/19 08:40:27;;;;;;;7.13;2.88;;;25.10;79.90;;;;;;5075370;28;20047;-62
2023/07/19 08:42:57;;;;;;;6.80;2.90;;;24.90;79.60;;;;;;5055836;28;20048;-69
2023/07/19 08:45:23;;;;;;;6.03;3.00;;;25.00;80.90;;;;;;5074208;28;20114;-62
2023/07/19 08:47:49;;;;;;;5.47;2.53;;;25.00;80.10;;;;;;5068068;28;20482;-61
2023/07/19 08:50:15;;;;;;;5.20;2.50;;;25.00;80.90;;;;;;5090745;28;20512;-63
2023/07/19 08:52:41;;;;;;;7.15;2.72;;;25.10;80.90;;;;;;5090517;28;20049;-67
2023/07/19 08:55:08;;;;;;;6.03;2.80;;;24.90;80.10;;;;;;5072718;28;20045;-63
2023/07/19 08:57:39;;;;;;;8.15;2.70;;;25.00;80.20;;;;;;5054544;28;20033;-64
2023/07/19 09:00:07;;;;;;;6.47;2.47;;;24.80;80.90;;;;;;5033968;28;20445;-61
2023/07/19 09:02:33;;;;;;;6.95;2.53;;;24.90;83.70;;;;;;5024094;28;20135;-62
2023/07/19 09:05:05;;;;;;;5.57;2.42;;;25.00;80.40;;;;;;5056631;28;20121;-61
2023/07/19 09:07:33;;;;;;;7.43;2.70;;;25.00;80.30;;;;;;5051221;28;20099;-68
2023/07/19 09:09:59;;;;;;;5.57;2.38;;;25.40;80.80;;;;;;5072420;28;20083;-64
2023/07/19 09:12:25;;;;;;;6.03;2.92;;;25.40;80.40;;;;;;5075006;28;20040;-59
2023/07/19 09:14:51;;;;;;;4.35;2.20;;;25.50;80.10;;;;;;5061924;28;20037;-62
2023/07/19 09:17:17;;;;;;;6.20;2.53;;;25.60;80.00;;;;;;5054813;28;20053;-61
2023/07/19 09:19:44;;;;;;;5.85;2.80;;;25.30;80.00;;;;;;5053636;28;20106;-62
2023/07/19 09:22:10;;;;;;;4.97;2.30;;;25.60;79.70;;;;;;5045764;28;20129;-62
2023/07/19 09:24:36;;;;;;;5.65;2.50;;;25.70;79.40;;;;;;5064090;28;20123;-63
2023/07/19 09:27:01;;;;;;;4.80;2.40;;;25.70;79.30;;;;;;5051752;28;20045;-61
2023/07/19 09:29:30;;;;;;;5.97;2.13;;;25.80;79.50;;;;;;5051609;28;20101;-67
2023/07/19 09:32:00;;;;;;;5.82;2.38;;;25.60;79.70;;;;;;5070861;28;20036;-62
2023/07/19 09:34:38;;;;;;;7.75;2.72;;;25.80;78.20;;;;;;5074649;28;20052;-62
2023/07/19 09:37:05;;;;;;;4.30;2.03;;;25.90;79.80;;;;;;5057861;28;20120;-69
2023/07/19 09:39:34;;;;;;;5.30;2.70;;;25.80;79.00;;;;;;5051228;28;20055;-71
2023/07/19 09:42:08;;;;;;;6.28;2.42;;;25.90;79.50;;;;;;5034600;28;20049;-65
2023/07/19 09:44:36;;;;;;;6.63;2.50;;;26.10;79.20;;;;;;5034443;28;20079;-66
2023/07/19 09:47:02;;;;;;;5.95;2.20;;;25.70;79.00;;;;;;5051128;28;20050;-61
2023/07/19 09:49:29;;;;;;;5.00;2.05;;;25.90;78.90;;;;;;5034044;28;20128;-62
2023/07/19 09:51:58;;;;;;;4.38;2.20;;;25.70;78.60;;;;;;5054193;28;20146;-65
2023/07/19 09:54:24;;;;;;;4.93;2.22;;;25.60;78.90;;;;;;5092487;28;20439;-63
2023/07/19 09:56:50;;;;;;;4.68;2.22;;;25.70;79.20;;;;;;5091093;28;20056;-64
2023/07/19 09:59:23;;;;;;;4.40;1.90;;;25.60;79.20;;;;;;5088328;28;20045;-61
2023/07/19 10:01:49;;;;;;;4.07;2.10;;;25.50;79.80;;;;;;5087951;28;20036;-63
2023/07/19 10:04:28;;;;;;;5.60;2.25;;;25.30;79.00;;;;;;5094224;28;20116;-64
2023/07/19 10:07:14;;;;;;;4.13;2.05;;;25.40;80.00;;;;;;5093273;28;20036;-64
2023/07/19 10:09:44;;;;;;;4.32;2.17;;;25.30;78.50;;;;;;5093325;28;20040;-64
2023/07/19 10:12:15;;;;;;;5.28;2.10;;;25.40;83.10;;;;;;5091700;28;20056;-63
2023/07/19 10:14:51;;;;;;;4.85;2.30;;;25.50;79.90;;;;;;5073776;28;20127;-61
2023/07/19 10:17:17;;;;;;;4.18;2.03;;;25.10;79.70;;;;;;5073339;28;20076;-65
2023/07/19 10:20:14;;;;;;;3.92;2.20;;;25.40;79.40;;;;;;5074835;28;20083;-61
2023/07/19 10:23:00;;;;;;;4.70;2.13;;;25.30;78.90;;;;;;5087601;28;20063;-62
2023/07/19 10:25:48;;;;;;;4.70;2.03;;;25.40;79.00;;;;;;5075815;28;20070;-63
2023/07/19 10:28:24;;;;;;;5.35;1.80;;;25.50;79.00;;;;;;5093398;28;20050;-60
2023/07/19 10:30:54;;;;;;;4.00;2.03;;;25.20;80.00;;;;;;5091551;28;20043;-63
2023/07/19 10:33:31;;;;;;;4.45;1.80;;;25.40;80.30;;;;;;5068971;28;20858;-69
2023/07/19 10:36:17;;;;;;;4.20;1.95;;;25.40;78.80;;;;;;5087612;28;20056;-68
2023/07/19 10:38:44;;;;;;;5.45;1.92;;;25.30;80.00;;;;;;5092147;28;20044;-63
2023/07/19 10:41:11;;;;;;;3.85;1.80;;;25.40;79.60;;;;;;5093480;28;20439;-64
2023/07/19 10:43:37;;;;;;;4.18;1.75;;;25.50;79.90;;;;;;5092382;28;20397;-62
2023/07/19 10:46:04;;;;;;;4.38;1.70;;;25.80;79.90;;;;;;5093039;28;20040;-65
2023/07/19 10:48:34;;;;;;;5.05;2.00;;;25.50;79.60;;;;;;5092957;28;20047;-61
2023/07/19 10:51:10;;;;;;;3.65;1.90;;;25.60;80.00;;;;;;5079749;28;20052;-63
2023/07/19 10:53:45;;;;;;;3.78;1.88;;;25.40;78.20;;;;;;5067374;28;20135;-64
2023/07/19 10:56:13;;;;;;;4.03;1.80;;;25.70;78.70;;;;;;5088890;28;20055;-63
2023/07/19 10:58:39;;;;;;;4.70;1.95;;;25.40;79.60;;;;;;5092769;28;20371;-64
2023/07/19 11:01:05;;;;;;;4.45;1.92;;;25.60;79.50;;;;;;5091594;28;20038;-61
2023/07/19 11:03:32;;;;;;;4.05;1.70;;;25.60;79.60;;;;;;5087462;28;20050;-66
2023/07/19 11:05:58;;;;;;;3.05;1.70;;;25.70;79.60;;;;;;5057649;28;20097;-70
2023/07/19 11:08:25;;;;;;;3.63;1.60;;;25.80;79.60;;;;;;5092664;28;20048;-68
2023/07/19 11:10:52;;;;;;;2.28;1.52;;;25.60;79.80;;;;;;5092749;28;20048;-71
2023/07/19 11:13:18;;;;;;;4.85;1.83;;;25.70;79.70;;;;;;5091028;28;20147;-67
2023/07/19 11:15:51;;;;;;;3.58;1.50;;;25.80;79.60;;;;;;5086731;28;20485;-66
2023/07/19 11:18:23;;;;;;;3.50;1.60;;;25.50;78.20;;;;;;5072680;28;20049;-72
2023/07/19 11:20:49;;;;;;;;;;;26.00;79.80;;;;;;5079438;28;20040;-61
2023/07/19 11:23:15;;;;;;;4.20;1.50;;;25.50;79.60;;;;;;5089264;28;19945;-61
2023/07/19 11:25:41;;;;;;;3.33;1.27;;;25.80;79.30;;;;;;5091030;28;20047;-61
2023/07/19 11:28:07;;;;;;;3.03;1.55;;;25.70;79.40;;;;;;5089699;28;20049;-61
2023/07/19 11:30:37;;;;;;;3.35;1.45;;;25.70;79.20;;;;;;5066705;28;20095;-72
2023/07/19 11:33:07;;;;;;;2.80;1.60;;;25.80;79.70;;;;;;5083790;28;20120;-68
2023/07/19 11:35:33;;;;;;;3.03;1.60;;;25.70;79.40;;;;;;5092689;28;20076;-67
2023/07/19 11:37:59;;;;;;;3.05;1.73;;;25.80;79.20;;;;;;5083303;28;20133;-71
2023/07/19 11:40:25;;;;;;;2.90;1.40;;;25.70;79.10;;;;;;5085081;28;20048;-69
2023/07/19 11:42:56;;;;;;;2.42;1.30;;;25.80;78.70;;;;;;5092620;28;20052;-70
2023/07/19 11:45:27;;;;;;;4.38;1.92;;;25.60;79.60;;;;;;5092358;28;20075;-71
2023/07/19 11:48:00;;;;;;;3.33;1.45;;;25.70;78.00;;;;;;5091716;28;20101;-72
2023/07/19 11:50:26;;;;;;;3.53;1.50;;;25.40;79.40;;;;;;5087486;28;20557;-70
2023/07/19 11:53:01;;;;;;;1.98;1.20;;;25.60;79.30;;;;;;5090417;28;20048;-70
2023/07/19 11:55:28;;;;;;;3.80;1.45;;;25.50;79.50;;;;;;5081411;28;20048;-69
2023/07/19 11:57:55;;;;;;;4.80;1.58;;;25.70;79.30;;;;;;5078508;28;20065;-68
2023/07/19 12:00:24;;;;;;;3.03;1.55;;;25.80;79.50;;;;;;5088578;28;20044;-70
2023/07/19 12:02:51;;;;;;;3.38;1.40;;;25.60;79.30;;;;;;5071952;28;20059;-64
2023/07/19 12:05:21;;;;;;;2.40;1.30;;;25.70;79.30;;;;;;5071888;28;20088;-68
2023/07/19 12:07:50;;;;;;;2.22;1.10;;;25.70;79.40;;;;;;5058983;28;20090;-67
2023/07/19 12:10:17;;;;;;;2.60;1.20;;;25.80;79.30;;;;;;5094608;28;20044;-71
2023/07/19 12:12:44;;;;;;;3.47;1.17;;;25.60;79.00;;;;;;5084517;28;20507;-64
2023/07/19 12:15:11;;;;;;;2.90;1.20;;;25.60;79.20;;;;;;5078321;28;20076;-64
2023/07/19 12:17:37;;;;;;;2.10;1.00;;;25.70;79.00;;;;;;5096010;28;20578;-64
2023/07/19 12:20:07;;;;;;;2.67;1.40;;;25.80;79.00;;;;;;5095935;28;20137;-61
2023/07/19 12:22:37;;;;;;;3.00;1.30;;;25.50;79.10;;;;;;5095754;28;20489;-61
2023/07/19 12:25:04;;;;;;;2.72;1.27;;;25.50;77.60;;;;;;5094771;28;20040;-62
2023/07/19 12:27:30;;;;;;;1.73;1.08;;;25.70;81.90;;;;;;5075807;28;20110;-62
2023/07/19 12:29:57;;;;;;;3.55;1.42;;;25.60;79.10;;;;;;5054355;28;20113;-65
2023/07/19 12:32:23;;;;;;;2.80;1.25;;;25.80;79.00;;;;;;5094509;28;20077;-62
2023/07/19 12:34:49;;;;;;;3.22;1.20;;;25.70;78.70;;;;;;5083928;28;20127;-62
2023/07/19 12:37:15;;;;;;;3.85;1.17;;;25.80;78.80;;;;;;5075409;28;20041;-63
2023/07/19 12:39:41;;;;;;;2.10;1.05;;;25.60;78.60;;;;;;5075796;28;20045;-62
2023/07/19 12:42:07;;;;;;;2.65;1.30;;;25.70;78.70;;;;;;5060731;28;20234;-62
2023/07/19 12:44:34;;;;;;;1.90;1.20;;;25.90;79.10;;;;;;5094637;28;20052;-61
2023/07/19 12:47:00;;;;;;;3.55;1.50;;;25.70;78.80;;;;;;5079271;28;20044;-64
2023/07/19 12:49:26;;;;;;;2.35;1.42;;;25.80;78.90;;;;;;5095039;28;20055;-61